createdAt,value
2019-05-10T00:00:15.271Z,1.67
2019-05-10T00:03:01.903Z,1.57
2019-05-10T00:05:50.490Z,1.60
2019-05-10T00:08:36.975Z,1.70
2019-05-10T00:11:08.031Z,1.70
2019-05-10T00:13:54.979Z,1.70
2019-05-10T00:16:24.811Z,2.30
2019-05-10T00:18:53.533Z,1.83
2019-05-10T00:21:22.135Z,2.13
2019-05-10T00:23:50.616Z,2.20
2019-05-10T00:26:19.132Z,2.23
2019-05-10T00:28:47.679Z,2.07
2019-05-10T00:31:16.205Z,2.20
2019-05-10T00:33:44.675Z,2.17
2019-05-10T00:36:13.133Z,2.30
2019-05-10T00:38:41.961Z,2.00
2019-05-10T00:41:10.427Z,2.20
2019-05-10T00:43:39.153Z,2.23
2019-05-10T00:46:07.608Z,1.60
2019-05-10T00:48:36.345Z,1.73
2019-05-10T00:51:05.143Z,1.87
2019-05-10T00:53:33.641Z,1.77
2019-05-10T00:56:02.336Z,1.90
2019-05-10T00:58:30.794Z,1.90
2019-05-10T01:00:59.280Z,1.90
2019-05-10T01:03:28.206Z,1.80
2019-05-10T01:05:56.680Z,1.73
2019-05-10T01:08:25.398Z,1.80
2019-05-10T01:10:53.960Z,2.00
2019-05-10T01:13:22.407Z,1.90
2019-05-10T01:15:50.864Z,2.10
2019-05-10T01:18:19.347Z,1.90
2019-05-10T01:20:47.887Z,2.07
2019-05-10T01:23:16.329Z,1.90
2019-05-10T01:25:44.825Z,1.60
2019-05-10T01:28:13.352Z,1.70
2019-05-10T01:30:42.152Z,1.87
2019-05-10T01:33:10.643Z,1.90
2019-05-10T01:35:39.102Z,2.10
2019-05-10T01:38:07.585Z,2.40
2019-05-10T01:40:36.114Z,2.10
2019-05-10T01:43:04.917Z,2.50
2019-05-10T01:45:33.440Z,1.90
2019-05-10T01:48:01.934Z,2.10
2019-05-10T01:50:30.422Z,1.90
2019-05-10T01:52:58.879Z,1.67
2019-05-10T01:55:27.322Z,1.77
2019-05-10T01:57:55.802Z,1.73
2019-05-10T02:00:24.318Z,1.70
2019-05-10T02:02:52.794Z,1.73
2019-05-10T02:05:21.689Z,1.80
2019-05-10T02:07:50.253Z,1.80
2019-05-10T02:10:18.868Z,1.93
2019-05-10T02:12:47.326Z,1.70
2019-05-10T02:15:16.057Z,1.70
2019-05-10T02:17:44.522Z,1.80
2019-05-10T02:20:13.549Z,1.67
2019-05-10T02:22:42.247Z,1.50
2019-05-10T02:25:10.883Z,1.73
2019-05-10T02:27:39.696Z,1.73
2019-05-10T02:30:09.515Z,1.90
2019-05-10T02:32:37.989Z,1.83
2019-05-10T02:35:07.874Z,1.63
2019-05-10T02:37:36.404Z,1.73
2019-05-10T02:40:06.460Z,1.90
2019-05-10T02:42:34.926Z,1.80
2019-05-10T02:45:07.214Z,1.70
2019-05-10T02:47:35.689Z,2.07
2019-05-10T02:50:07.177Z,2.10
2019-05-10T02:52:35.819Z,1.70
2019-05-10T02:55:08.101Z,2.10
2019-05-10T02:57:37.543Z,2.17
2019-05-10T03:00:07.519Z,2.23
2019-05-10T03:02:36.708Z,2.00
2019-05-10T03:05:06.917Z,2.20
2019-05-10T03:07:37.953Z,1.90
2019-05-10T03:10:09.241Z,1.90
2019-05-10T03:12:40.108Z,2.00
2019-05-10T03:15:11.043Z,1.90
2019-05-10T03:17:40.805Z,1.70
2019-05-10T03:20:10.319Z,1.70
2019-05-10T03:22:43.312Z,1.80
2019-05-10T03:25:13.324Z,1.90
2019-05-10T03:27:41.847Z,1.63
2019-05-10T03:30:10.873Z,1.80
2019-05-10T03:32:39.466Z,1.80
2019-05-10T03:35:08.390Z,1.80
2019-05-10T03:37:37.178Z,2.00
2019-05-10T03:40:07.914Z,1.70
2019-05-10T03:42:36.844Z,2.00
2019-05-10T03:45:07.513Z,1.90
2019-05-10T03:47:36.080Z,1.93
2019-05-10T03:50:06.518Z,2.20
2019-05-10T03:52:35.059Z,2.03
2019-05-10T03:55:04.700Z,2.10
2019-05-10T03:57:33.219Z,1.90
2019-05-10T04:00:01.676Z,1.90
2019-05-10T04:02:30.205Z,2.30
2019-05-10T04:04:58.935Z,2.80
2019-05-10T04:07:27.485Z,2.97
2019-05-10T04:09:55.955Z,3.20
2019-05-10T04:12:24.418Z,2.10
2019-05-10T04:14:52.972Z,2.57
2019-05-10T04:17:21.433Z,2.33
2019-05-10T04:19:49.926Z,2.20
2019-05-10T04:22:18.626Z,2.10
2019-05-10T04:24:47.102Z,1.73
2019-05-10T04:27:30.765Z,2.17
2019-05-10T04:29:45.747Z,2.43
2019-05-10T04:32:14.210Z,2.40
2019-05-10T04:34:42.670Z,2.40
2019-05-10T04:37:11.153Z,2.53
2019-05-10T04:39:39.644Z,2.43
2019-05-10T04:42:08.090Z,2.37
2019-05-10T04:44:36.538Z,2.67
2019-05-10T04:47:05.025Z,2.20
2019-05-10T04:49:33.461Z,2.87
2019-05-10T04:52:02.220Z,3.13
2019-05-10T04:54:30.692Z,2.80
2019-05-10T04:57:00.218Z,3.10
2019-05-10T04:59:29.226Z,2.57
2019-05-10T05:01:57.776Z,2.33
2019-05-10T05:04:26.341Z,2.30
2019-05-10T05:06:54.905Z,2.43
2019-05-10T05:09:23.418Z,2.33
2019-05-10T05:11:51.890Z,2.67
2019-05-10T05:14:20.371Z,2.40
2019-05-10T05:16:48.844Z,2.20
2019-05-10T05:19:17.345Z,2.40
2019-05-10T05:21:45.799Z,2.50
2019-05-10T05:24:16.990Z,2.10
2019-05-10T05:26:44.530Z,2.40
2019-05-10T05:29:12.994Z,2.60
2019-05-10T05:31:41.557Z,2.50
2019-05-10T05:34:10.022Z,2.80
2019-05-10T05:36:38.816Z,2.97
2019-05-10T05:39:08.236Z,2.80
2019-05-10T05:41:47.854Z,2.90
2019-05-10T05:44:07.080Z,2.80
2019-05-10T05:46:35.617Z,2.80
2019-05-10T05:49:04.164Z,2.30
2019-05-10T05:51:32.812Z,2.70
2019-05-10T05:54:03.946Z,2.77
2019-05-10T05:56:31.921Z,2.60
2019-05-10T05:59:00.359Z,2.70
2019-05-10T06:01:29.508Z,2.50
2019-05-10T06:04:00.157Z,2.80
2019-05-10T06:06:28.846Z,2.80
2019-05-10T06:08:59.778Z,2.60
2019-05-10T06:11:29.859Z,2.47
2019-05-10T06:14:03.464Z,2.63
2019-05-10T06:16:27.952Z,2.57
2019-05-10T06:18:56.442Z,3.20
2019-05-10T06:21:26.777Z,2.93
2019-05-10T06:23:55.103Z,3.20
2019-05-10T06:26:28.429Z,3.57
2019-05-10T06:29:04.342Z,3.07
2019-05-10T06:31:24.008Z,2.83
2019-05-10T06:33:52.491Z,3.33
2019-05-10T06:36:20.978Z,3.30
2019-05-10T06:38:49.422Z,3.00
2019-05-10T06:41:19.256Z,2.87
2019-05-10T06:43:51.491Z,2.90
2019-05-10T06:46:18.000Z,3.30
2019-05-10T06:48:46.494Z,2.50
2019-05-10T06:51:14.971Z,3.03
2019-05-10T06:53:52.086Z,2.90
2019-05-10T06:56:13.626Z,2.70
2019-05-10T06:58:42.093Z,2.80
2019-05-10T07:01:10.548Z,3.40
2019-05-10T07:03:39.101Z,3.10
2019-05-10T07:06:07.652Z,3.47
2019-05-10T07:08:43.698Z,3.70
2019-05-10T07:11:06.334Z,3.70
2019-05-10T07:13:34.809Z,3.50
2019-05-10T07:16:03.333Z,4.07
2019-05-10T07:18:31.820Z,3.67
2019-05-10T07:21:05.942Z,3.33
2019-05-10T07:23:31.172Z,3.80
2019-05-10T07:25:59.618Z,3.50
2019-05-10T07:28:28.079Z,3.30
2019-05-10T07:30:56.564Z,3.27
2019-05-10T07:33:25.040Z,3.13
2019-05-10T07:35:53.523Z,3.00
2019-05-10T07:38:23.863Z,2.80
2019-05-10T07:40:52.173Z,3.47
2019-05-10T07:43:26.332Z,3.10
2019-05-10T07:45:50.867Z,2.90
2019-05-10T07:48:22.913Z,2.90
2019-05-10T07:50:51.930Z,3.10
2019-05-10T07:53:22.925Z,2.90
2019-05-10T07:55:50.218Z,3.40
2019-05-10T07:58:18.708Z,3.00
2019-05-10T08:00:47.177Z,3.10
2019-05-10T08:03:19.118Z,2.83
2019-05-10T08:05:54.898Z,2.60
2019-05-10T08:08:19.223Z,3.73
2019-05-10T08:10:48.812Z,3.87
2019-05-10T08:13:23.384Z,3.50
2019-05-10T08:15:49.037Z,3.90
2019-05-10T08:18:21.169Z,3.80
2019-05-10T08:20:53.844Z,3.60
2019-05-10T08:23:23.775Z,3.43
2019-05-10T08:25:48.559Z,3.97
2019-05-10T08:28:17.050Z,3.30
2019-05-10T08:30:58.760Z,3.30
2019-05-10T08:33:16.832Z,2.97
2019-05-10T08:35:46.531Z,3.10
2019-05-10T08:38:15.335Z,3.03
2019-05-10T08:40:43.863Z,3.47
2019-05-10T08:43:16.027Z,2.80
2019-05-10T08:45:45.155Z,2.90
2019-05-10T08:48:12.989Z,3.10
2019-05-10T08:50:53.291Z,2.97
2019-05-10T08:53:16.300Z,3.00
2019-05-10T08:55:43.273Z,3.00
2019-05-10T08:58:12.439Z,2.77
2019-05-10T09:00:54.157Z,2.90
2019-05-10T09:03:18.090Z,3.13
2019-05-10T09:05:43.299Z,3.17
2019-05-10T09:08:19.636Z,3.40
2019-05-10T09:10:42.373Z,3.10
2019-05-10T09:13:12.819Z,3.23
2019-05-10T09:15:51.363Z,3.37
2019-05-10T09:18:12.804Z,3.20
2019-05-10T09:20:42.316Z,3.00
2019-05-10T09:23:17.882Z,2.93
2019-05-10T09:25:42.667Z,2.83
2019-05-10T09:28:16.443Z,3.03
2019-05-10T09:30:56.549Z,3.27
2019-05-10T09:33:14.336Z,2.90
2019-05-10T09:35:47.029Z,3.20
2019-05-10T09:38:12.605Z,3.27
2019-05-10T09:40:50.642Z,3.30
2019-05-10T09:43:12.524Z,3.27
2019-05-10T09:45:42.455Z,3.23
2019-05-10T09:48:12.107Z,3.00
2019-05-10T09:50:46.515Z,3.90
2019-05-10T09:53:13.586Z,3.60
2019-05-10T09:55:45.443Z,2.83
2019-05-10T09:58:13.270Z,2.63
2019-05-10T10:00:41.741Z,3.03
2019-05-10T10:03:12.721Z,2.90
2019-05-10T10:05:40.513Z,2.73
2019-05-10T10:08:10.941Z,2.70
2019-05-10T10:10:39.825Z,3.00
2019-05-10T10:13:13.578Z,2.73
2019-05-10T10:15:38.689Z,3.33
2019-05-10T10:18:07.233Z,2.60
2019-05-10T10:20:42.983Z,2.00
2019-05-10T10:23:07.368Z,2.00
2019-05-10T10:25:40.444Z,1.70
2019-05-10T10:28:08.357Z,1.90
2019-05-10T10:30:37.340Z,1.80
2019-05-10T10:33:11.757Z,1.80
2019-05-10T10:35:37.917Z,1.93
2019-05-10T10:38:08.120Z,1.63
2019-05-10T10:40:44.197Z,1.50
2019-05-10T10:43:07.730Z,1.50
2019-05-10T10:45:37.686Z,1.70
2019-05-10T10:48:10.724Z,1.67
2019-05-10T10:50:36.697Z,1.37
2019-05-10T10:53:07.762Z,1.90
2019-05-10T10:55:37.822Z,1.70
2019-05-10T10:58:07.395Z,2.20
2019-05-10T11:00:39.011Z,2.20
2019-05-10T11:03:07.045Z,1.97
2019-05-10T11:05:35.497Z,2.50
2019-05-10T11:08:04.106Z,2.60
2019-05-10T11:10:32.711Z,3.00
2019-05-10T11:13:10.683Z,2.93
2019-05-10T11:15:36.049Z,3.00
2019-05-10T11:18:02.553Z,3.10
2019-05-10T11:20:31.932Z,2.60
2019-05-10T11:23:00.715Z,2.77
2019-05-10T11:25:29.180Z,3.80
2019-05-10T11:27:59.304Z,3.10
2019-05-10T11:30:27.937Z,3.10
2019-05-10T11:32:56.436Z,2.70
2019-05-10T11:35:30.463Z,3.33
2019-05-10T11:37:55.304Z,3.17
2019-05-10T11:40:30.692Z,2.73
2019-05-10T11:42:54.039Z,2.97
2019-05-10T11:45:26.203Z,2.93
2019-05-10T11:47:59.092Z,3.00
2019-05-10T11:50:31.293Z,3.37
2019-05-10T11:52:55.180Z,3.43
2019-05-10T11:55:23.731Z,3.10
2019-05-10T11:58:01.969Z,3.00
2019-05-10T12:00:28.443Z,3.13
2019-05-10T12:03:07.448Z,2.60
2019-05-10T12:05:26.794Z,2.43
2019-05-10T12:07:54.712Z,2.50
2019-05-10T12:10:25.589Z,2.70
2019-05-10T12:15:25.839Z,2.90
2019-05-10T12:17:59.170Z,3.30
2019-05-10T12:20:38.979Z,2.57
2019-05-10T12:22:54.836Z,2.40
2019-05-10T12:26:05.804Z,2.77
2019-05-10T12:26:59.224Z,2.60
2019-05-10T12:27:53.936Z,2.23
2019-05-10T12:30:22.480Z,2.30
2019-05-10T12:32:56.157Z,3.10
2019-05-10T12:35:21.530Z,2.73
2019-05-10T12:37:54.046Z,2.67
2019-05-10T12:40:24.150Z,2.60
2019-05-10T12:42:51.399Z,2.40
2019-05-10T12:45:22.941Z,2.43
2019-05-10T12:47:51.677Z,2.33
2019-05-10T12:50:21.468Z,2.60
2019-05-10T12:53:02.746Z,2.20
2019-05-10T12:55:20.153Z,2.13
2019-05-10T12:57:48.687Z,2.07
2019-05-10T13:00:17.300Z,2.30
2019-05-10T13:02:51.049Z,2.27
2019-05-10T13:05:16.235Z,2.27
2019-05-10T13:07:44.754Z,2.13
2019-05-10T13:10:13.662Z,2.20
2019-05-10T13:12:44.732Z,2.27
2019-05-10T13:15:13.153Z,2.20
2019-05-10T13:17:44.198Z,1.97
2019-05-10T13:20:12.455Z,2.17
2019-05-10T13:22:40.937Z,2.23
2019-05-10T13:25:10.214Z,2.40
2019-05-10T13:27:38.830Z,2.53
2019-05-10T13:30:08.482Z,2.00
2019-05-10T13:32:37.025Z,2.37
2019-05-10T13:35:06.240Z,2.70
2019-05-10T13:37:34.718Z,2.67
2019-05-10T13:40:07.533Z,2.17
2019-05-10T13:42:36.467Z,2.40
2019-05-10T13:45:05.691Z,2.50
2019-05-10T13:47:34.171Z,2.10
2019-05-10T13:50:02.645Z,2.40
2019-05-10T13:52:38.047Z,2.47
2019-05-10T13:55:01.493Z,2.63
2019-05-10T13:57:30.039Z,2.40
2019-05-10T14:00:02.011Z,2.50
2019-05-10T14:02:33.085Z,2.30
2019-05-10T14:04:58.903Z,2.30
2019-05-10T14:07:27.387Z,2.70
2019-05-10T14:09:55.871Z,2.50
2019-05-10T14:12:25.752Z,2.57
2019-05-10T14:14:55.640Z,2.30
2019-05-10T14:17:24.605Z,2.50
2019-05-10T14:19:53.399Z,2.50
2019-05-10T14:22:21.889Z,2.23
2019-05-10T14:24:53.279Z,2.50
2019-05-10T14:27:20.551Z,2.33
2019-05-10T14:29:49.013Z,2.30
2019-05-10T14:32:17.502Z,2.30
2019-05-10T14:34:46.340Z,2.60
2019-05-10T14:37:20.005Z,2.43
2019-05-10T14:39:45.451Z,2.37
2019-05-10T14:42:13.911Z,2.40
2019-05-10T14:44:42.405Z,2.20
2019-05-10T14:47:11.263Z,2.20
2019-05-10T14:49:42.159Z,2.30
2019-05-10T14:52:09.996Z,2.70
2019-05-10T14:54:43.603Z,2.50
2019-05-10T14:57:08.658Z,2.50
2019-05-10T14:59:37.143Z,2.63
2019-05-10T15:02:05.623Z,2.73
2019-05-10T15:04:49.433Z,2.67
2019-05-10T15:07:08.486Z,2.90
2019-05-10T15:09:34.983Z,2.90
2019-05-10T15:12:03.521Z,2.63
2019-05-10T15:14:31.998Z,2.37
2019-05-10T15:17:00.470Z,2.60
2019-05-10T15:19:31.473Z,2.20
2019-05-10T15:21:59.135Z,2.47
2019-05-10T15:24:27.615Z,2.80
2019-05-10T15:26:56.075Z,2.60
2019-05-10T15:29:24.864Z,2.63
2019-05-10T15:31:53.511Z,3.37
2019-05-10T15:34:22.008Z,3.13
2019-05-10T15:36:50.462Z,3.00
2019-05-10T15:39:22.900Z,2.50
2019-05-10T15:41:53.598Z,2.40
2019-05-10T15:44:19.454Z,2.70
2019-05-10T15:46:47.953Z,2.50
2019-05-10T15:49:22.678Z,2.60
2019-05-10T15:51:49.283Z,2.13
2019-05-10T15:54:16.809Z,2.77
2019-05-10T15:56:45.381Z,2.70
2019-05-10T15:59:19.135Z,2.70
2019-05-10T16:01:45.745Z,2.60
2019-05-10T16:04:14.628Z,2.23
2019-05-10T16:06:43.101Z,2.50
2019-05-10T16:09:17.333Z,2.60
2019-05-10T16:11:41.902Z,2.33
2019-05-10T16:14:10.467Z,2.10
2019-05-10T16:16:39.743Z,2.00
2019-05-10T16:19:13.027Z,2.00
2019-05-10T16:21:38.675Z,1.80
2019-05-10T16:24:07.219Z,1.70
2019-05-10T16:26:35.693Z,1.87
2019-05-10T16:29:04.242Z,1.87
2019-05-10T16:31:32.700Z,1.87
2019-05-10T16:34:01.193Z,2.17
2019-05-10T16:36:30.176Z,2.70
2019-05-10T16:39:01.532Z,2.70
2019-05-10T16:41:29.031Z,2.00
2019-05-10T16:43:59.938Z,2.07
2019-05-10T16:46:27.742Z,2.23
2019-05-10T16:48:57.544Z,1.90
2019-05-10T16:51:26.025Z,2.20
2019-05-10T16:53:54.496Z,2.30
2019-05-10T16:56:23.288Z,2.33
2019-05-10T16:58:52.998Z,2.03
2019-05-10T17:01:27.536Z,2.20
2019-05-10T17:03:59.933Z,2.53
2019-05-10T17:06:23.061Z,2.80
2019-05-10T17:08:51.520Z,2.00
2019-05-10T17:11:19.983Z,2.17
2019-05-10T17:13:48.458Z,2.50
2019-05-10T17:16:18.808Z,3.03
2019-05-10T17:18:49.781Z,2.53
2019-05-10T17:21:17.414Z,2.10
2019-05-10T17:23:46.944Z,1.90
2019-05-10T17:26:16.418Z,2.27
2019-05-10T17:28:44.899Z,2.10
2019-05-10T17:31:13.363Z,1.80
2019-05-10T17:33:44.282Z,2.00
2019-05-10T17:36:14.493Z,1.60
2019-05-10T17:38:47.173Z,1.90
2019-05-10T17:41:12.749Z,2.00
2019-05-10T17:43:41.206Z,2.00
2019-05-10T17:46:12.941Z,1.87
2019-05-10T17:48:40.752Z,1.70
2019-05-10T17:51:10.090Z,1.73
2019-05-10T17:53:38.547Z,1.70
2019-05-10T17:56:07.061Z,1.83
2019-05-10T17:58:35.591Z,1.80
2019-05-10T18:01:04.129Z,1.80
2019-05-10T18:03:32.596Z,2.30
2019-05-10T18:06:01.105Z,2.10
2019-05-10T18:08:29.621Z,2.00
2019-05-10T18:11:03.848Z,2.10
2019-05-10T18:13:29.073Z,1.60
2019-05-10T18:15:57.568Z,1.90
2019-05-10T18:18:26.112Z,1.67
2019-05-10T18:20:54.590Z,1.53
2019-05-10T18:23:23.121Z,1.30
2019-05-10T18:25:52.613Z,1.70
2019-05-10T18:28:22.539Z,1.70
2019-05-10T18:30:51.009Z,1.57
2019-05-10T18:33:20.547Z,1.80
2019-05-10T18:35:53.004Z,1.70
2019-05-10T18:38:19.457Z,1.67
2019-05-10T18:40:47.929Z,2.20
2019-05-10T18:43:16.679Z,2.20
2019-05-10T18:45:45.490Z,2.00
2019-05-10T18:48:14.043Z,3.10
2019-05-10T18:50:45.498Z,2.87
2019-05-10T18:53:12.756Z,2.80
2019-05-10T18:55:41.360Z,2.10
2019-05-10T18:58:09.824Z,2.23
2019-05-10T19:00:40.197Z,2.00
2019-05-10T19:03:08.605Z,1.73
2019-05-10T19:05:37.335Z,1.70
2019-05-10T19:08:06.398Z,1.90
2019-05-10T19:10:35.047Z,1.60
2019-05-10T19:13:05.275Z,1.70
2019-05-10T19:15:34.085Z,1.53
2019-05-10T19:18:02.622Z,1.53
2019-05-10T19:20:31.091Z,1.70
2019-05-10T19:22:59.579Z,1.63
2019-05-10T19:25:28.060Z,1.87
2019-05-10T19:27:56.532Z,1.80
2019-05-10T19:30:24.998Z,1.90
2019-05-10T19:32:56.446Z,1.80
2019-05-10T19:35:23.657Z,1.70
2019-05-10T19:37:52.157Z,1.80
2019-05-10T19:40:20.682Z,1.63
2019-05-10T19:42:49.675Z,1.77
2019-05-10T19:45:21.079Z,1.70
2019-05-10T19:47:49.783Z,1.50
2019-05-10T19:50:24.145Z,1.40
2019-05-10T19:52:49.063Z,1.60
2019-05-10T19:55:19.583Z,1.50
2019-05-10T19:57:49.424Z,1.67
2019-05-10T20:00:18.841Z,1.70
2019-05-10T20:02:47.291Z,1.57
2019-05-10T20:05:15.944Z,1.43
2019-05-10T20:07:46.546Z,1.60
2019-05-10T20:10:14.925Z,1.47
2019-05-10T20:12:43.483Z,1.50
2019-05-10T20:15:12.605Z,4.30
2019-05-10T20:17:41.226Z,2.30
2019-05-10T20:20:10.425Z,1.70
2019-05-10T20:22:41.713Z,1.90
2019-05-10T20:25:10.438Z,1.53
2019-05-10T20:27:39.359Z,2.03
2019-05-10T20:30:08.984Z,4.50
2019-05-10T20:32:37.460Z,2.87
2019-05-10T20:35:08.833Z,1.90
2019-05-10T20:37:37.653Z,2.00
2019-05-10T20:40:06.769Z,2.40
2019-05-10T20:42:35.588Z,2.00
2019-05-10T20:45:08.362Z,1.80
2019-05-10T20:47:38.470Z,1.83
2019-05-10T20:50:07.601Z,2.40
2019-05-10T20:52:36.458Z,2.40
2019-05-10T20:55:06.196Z,1.80
2019-05-10T20:57:34.995Z,2.10
2019-05-10T21:05:43.680Z,1.90
2019-05-10T21:08:16.912Z,2.63
2019-05-10T21:10:42.942Z,2.87
2019-05-10T21:13:11.814Z,4.27
2019-05-10T21:15:40.268Z,3.90
2019-05-10T21:18:08.840Z,3.40
2019-05-10T21:20:37.606Z,3.37
2019-05-10T21:23:06.091Z,3.10
2019-05-10T21:25:34.615Z,2.67
2019-05-10T21:28:10.757Z,2.77
2019-05-10T21:31:00.084Z,2.50
2019-05-10T21:33:31.238Z,2.40
2019-05-10T21:38:53.485Z,2.30
2019-05-10T21:41:21.937Z,2.27
2019-05-10T21:43:50.413Z,2.10
2019-05-10T21:46:18.951Z,2.30
2019-05-10T21:48:47.454Z,2.30
2019-05-10T21:51:15.924Z,2.00
2019-05-10T21:53:44.407Z,2.00
2019-05-10T21:56:12.857Z,2.07
2019-05-10T21:58:41.646Z,2.30
2019-05-10T22:01:10.128Z,2.13
2019-05-10T22:03:38.674Z,2.30
2019-05-10T22:06:07.407Z,2.00
2019-05-10T22:08:48.469Z,1.87
2019-05-10T22:11:06.130Z,2.00
2019-05-10T22:13:34.606Z,1.70
2019-05-10T22:16:03.146Z,2.00
2019-05-10T22:18:33.670Z,1.83
2019-05-10T22:21:02.138Z,1.90
2019-05-10T22:23:30.599Z,1.70
2019-05-10T22:25:59.087Z,2.00
2019-05-10T22:28:27.649Z,1.80
2019-05-10T22:30:56.135Z,1.87
2019-05-10T22:33:24.610Z,1.70
2019-05-10T22:35:53.168Z,2.03
2019-05-10T22:38:21.666Z,2.20
2019-05-10T22:40:50.413Z,2.40
2019-05-10T22:43:18.883Z,2.67
2019-05-10T22:45:47.412Z,2.10
2019-05-10T22:48:15.899Z,2.13
2019-05-10T22:50:44.377Z,2.20
2019-05-10T22:53:13.119Z,2.13
2019-05-10T22:55:41.589Z,2.10
2019-05-10T22:58:10.087Z,2.30
2019-05-10T23:00:38.923Z,2.17
2019-05-10T23:03:07.466Z,2.20
2019-05-10T23:05:35.921Z,2.20
2019-05-10T23:08:04.533Z,2.10
2019-05-10T23:10:33.031Z,2.67
2019-05-10T23:13:01.742Z,2.83
2019-05-10T23:15:30.227Z,3.10
2019-05-10T23:17:58.688Z,2.93
2019-05-10T23:20:27.254Z,2.80
2019-05-10T23:22:55.769Z,2.47
2019-05-10T23:25:24.273Z,2.60
2019-05-10T23:27:52.752Z,2.30
2019-05-10T23:30:21.215Z,2.20
2019-05-10T23:32:49.699Z,2.40
2019-05-10T23:35:18.159Z,2.30
2019-05-10T23:37:46.624Z,2.10
2019-05-10T23:40:15.422Z,2.10
2019-05-10T23:42:43.891Z,2.30
2019-05-10T23:45:12.615Z,2.30
2019-05-10T23:47:41.152Z,2.20
2019-05-10T23:50:10.096Z,2.90
2019-05-10T23:52:38.830Z,2.33
2019-05-10T23:55:07.432Z,2.53
2019-05-10T23:57:35.922Z,2.30
